sensor_id;sensor_type;location;lat;lon;timestamp;P1;durP1;ratioP1;P2;durP2;ratioP2
57856;SDS011;43683;48.650;9.290;2023-02-28T00:00:48;3.25;;;2.83;;
57856;SDS011;43683;48.650;9.290;2023-02-28T00:03:13;4.47;;;3.05;;
57856;SDS011;43683;48.650;9.290;2023-02-28T00:05:39;5.63;;;3.10;;
57856;SDS011;43683;48.650;9.290;2023-02-28T00:08:05;4.45;;;3.22;;
57856;SDS011;43683;48.650;9.290;2023-02-28T00:10:31;3.70;;;2.80;;
57856;SDS011;43683;48.650;9.290;2023-02-28T00:13:01;4.32;;;3.00;;
57856;SDS011;43683;48.650;9.290;2023-02-28T00:15:29;4.25;;;2.90;;
57856;SDS011;43683;48.650;9.290;2023-02-28T00:17:55;4.20;;;2.95;;
57856;SDS011;43683;48.650;9.290;2023-02-28T00:20:21;5.57;;;3.13;;
57856;SDS011;43683;48.650;9.290;2023-02-28T00:22:48;3.33;;;2.85;;
57856;SDS011;43683;48.650;9.290;2023-02-28T00:25:16;3.42;;;2.95;;
57856;SDS011;43683;48.650;9.290;2023-02-28T00:27:44;4.47;;;3.00;;
57856;SDS011;43683;48.650;9.290;2023-02-28T00:30:11;3.85;;;3.05;;
57856;SDS011;43683;48.650;9.290;2023-02-28T00:32:41;3.40;;;2.70;;
57856;SDS011;43683;48.650;9.290;2023-02-28T00:35:07;3.13;;;2.78;;
57856;SDS011;43683;48.650;9.290;2023-02-28T00:37:34;3.58;;;3.00;;
57856;SDS011;43683;48.650;9.290;2023-02-28T00:39:59;3.97;;;3.10;;
57856;SDS011;43683;48.650;9.290;2023-02-28T00:42:25;5.38;;;3.25;;
57856;SDS011;43683;48.650;9.290;2023-02-28T00:44:51;3.00;;;2.75;;
57856;SDS011;43683;48.650;9.290;2023-02-28T00:47:16;2.85;;;2.60;;
57856;SDS011;43683;48.650;9.290;2023-02-28T00:49:42;3.67;;;3.33;;
57856;SDS011;43683;48.650;9.290;2023-02-28T00:52:07;2.85;;;2.63;;
57856;SDS011;43683;48.650;9.290;2023-02-28T00:54:33;6.18;;;3.17;;
57856;SDS011;43683;48.650;9.290;2023-02-28T00:56:59;6.93;;;3.10;;
57856;SDS011;43683;48.650;9.290;2023-02-28T00:59:24;5.93;;;2.95;;
57856;SDS011;43683;48.650;9.290;2023-02-28T01:01:50;4.25;;;3.08;;
57856;SDS011;43683;48.650;9.290;2023-02-28T01:04:16;4.47;;;2.92;;
57856;SDS011;43683;48.650;9.290;2023-02-28T01:06:41;5.10;;;3.65;;
57856;SDS011;43683;48.650;9.290;2023-02-28T01:09:07;3.15;;;2.85;;
57856;SDS011;43683;48.650;9.290;2023-02-28T01:11:33;3.33;;;2.90;;
57856;SDS011;43683;48.650;9.290;2023-02-28T01:13:59;3.80;;;3.00;;
57856;SDS011;43683;48.650;9.290;2023-02-28T01:16:25;2.80;;;2.60;;
57856;SDS011;43683;48.650;9.290;2023-02-28T01:18:51;4.43;;;2.97;;
57856;SDS011;43683;48.650;9.290;2023-02-28T01:21:18;3.63;;;2.92;;
57856;SDS011;43683;48.650;9.290;2023-02-28T01:23:45;4.20;;;3.05;;
57856;SDS011;43683;48.650;9.290;2023-02-28T01:26:15;4.90;;;3.17;;
57856;SDS011;43683;48.650;9.290;2023-02-28T01:28:43;4.45;;;3.35;;
57856;SDS011;43683;48.650;9.290;2023-02-28T01:31:09;3.72;;;3.13;;
57856;SDS011;43683;48.650;9.290;2023-02-28T01:33:35;4.22;;;2.95;;
57856;SDS011;43683;48.650;9.290;2023-02-28T01:36:01;3.83;;;3.10;;
57856;SDS011;43683;48.650;9.290;2023-02-28T01:38:28;4.82;;;3.35;;
57856;SDS011;43683;48.650;9.290;2023-02-28T01:40:54;5.60;;;3.55;;
57856;SDS011;43683;48.650;9.290;2023-02-28T01:43:24;3.20;;;2.90;;
57856;SDS011;43683;48.650;9.290;2023-02-28T01:45:52;5.60;;;2.83;;
57856;SDS011;43683;48.650;9.290;2023-02-28T01:48:19;4.03;;;3.25;;
57856;SDS011;43683;48.650;9.290;2023-02-28T01:50:48;2.92;;;2.72;;
57856;SDS011;43683;48.650;9.290;2023-02-28T01:53:16;5.25;;;3.15;;
57856;SDS011;43683;48.650;9.290;2023-02-28T01:55:46;3.50;;;3.17;;
57856;SDS011;43683;48.650;9.290;2023-02-28T01:58:15;4.18;;;3.10;;
57856;SDS011;43683;48.650;9.290;2023-02-28T02:00:41;4.38;;;3.03;;
57856;SDS011;43683;48.650;9.290;2023-02-28T02:03:12;6.13;;;3.70;;
57856;SDS011;43683;48.650;9.290;2023-02-28T02:05:39;4.82;;;3.17;;
57856;SDS011;43683;48.650;9.290;2023-02-28T02:08:09;6.07;;;3.10;;
57856;SDS011;43683;48.650;9.290;2023-02-28T02:10:45;4.75;;;3.15;;
57856;SDS011;43683;48.650;9.290;2023-02-28T02:32:10;3.38;;;2.67;;
57856;SDS011;43683;48.650;9.290;2023-02-28T02:37:28;6.05;;;3.28;;
57856;SDS011;43683;48.650;9.290;2023-02-28T02:40:46;4.50;;;3.28;;
57856;SDS011;43683;48.650;9.290;2023-02-28T02:45:56;3.92;;;3.28;;
57856;SDS011;43683;48.650;9.290;2023-02-28T02:48:30;4.60;;;3.28;;
57856;SDS011;43683;48.650;9.290;2023-02-28T02:50:58;3.28;;;3.00;;
57856;SDS011;43683;48.650;9.290;2023-02-28T02:53:40;5.97;;;3.58;;
57856;SDS011;43683;48.650;9.290;2023-02-28T02:56:14;4.05;;;2.90;;
57856;SDS011;43683;48.650;9.290;2023-02-28T02:58:43;4.65;;;3.30;;
57856;SDS011;43683;48.650;9.290;2023-02-28T03:01:11;7.47;;;3.63;;
57856;SDS011;43683;48.650;9.290;2023-02-28T03:03:42;3.95;;;3.08;;
57856;SDS011;43683;48.650;9.290;2023-02-28T03:06:09;6.07;;;3.70;;
57856;SDS011;43683;48.650;9.290;2023-02-28T03:08:36;7.28;;;3.60;;
57856;SDS011;43683;48.650;9.290;2023-02-28T03:16:23;4.15;;;3.13;;
57856;SDS011;43683;48.650;9.290;2023-02-28T03:24:42;5.13;;;3.45;;
57856;SDS011;43683;48.650;9.290;2023-02-28T03:27:23;5.47;;;3.40;;
57856;SDS011;43683;48.650;9.290;2023-02-28T03:30:14;5.60;;;3.63;;
57856;SDS011;43683;48.650;9.290;2023-02-28T03:32:54;7.20;;;3.10;;
57856;SDS011;43683;48.650;9.290;2023-02-28T03:35:26;5.30;;;3.55;;
57856;SDS011;43683;48.650;9.290;2023-02-28T03:38:02;6.00;;;3.38;;
57856;SDS011;43683;48.650;9.290;2023-02-28T03:40:33;5.50;;;3.40;;
57856;SDS011;43683;48.650;9.290;2023-02-28T03:43:03;4.78;;;3.33;;
57856;SDS011;43683;48.650;9.290;2023-02-28T03:45:35;5.40;;;3.67;;
57856;SDS011;43683;48.650;9.290;2023-02-28T03:48:07;5.90;;;3.65;;
57856;SDS011;43683;48.650;9.290;2023-02-28T03:50:41;5.75;;;3.30;;
57856;SDS011;43683;48.650;9.290;2023-02-28T03:53:14;5.75;;;3.28;;
57856;SDS011;43683;48.650;9.290;2023-02-28T03:55:53;6.32;;;3.72;;
57856;SDS011;43683;48.650;9.290;2023-02-28T03:58:54;4.20;;;3.67;;
57856;SDS011;43683;48.650;9.290;2023-02-28T04:01:25;4.25;;;3.53;;
57856;SDS011;43683;48.650;9.290;2023-02-28T04:04:00;5.80;;;3.70;;
57856;SDS011;43683;48.650;9.290;2023-02-28T04:06:25;6.57;;;3.70;;
57856;SDS011;43683;48.650;9.290;2023-02-28T04:08:52;7.35;;;4.20;;
57856;SDS011;43683;48.650;9.290;2023-02-28T04:11:20;5.88;;;4.03;;
57856;SDS011;43683;48.650;9.290;2023-02-28T04:13:55;4.68;;;3.83;;
57856;SDS011;43683;48.650;9.290;2023-02-28T04:16:20;5.50;;;3.95;;
57856;SDS011;43683;48.650;9.290;2023-02-28T04:18:46;4.85;;;3.35;;
57856;SDS011;43683;48.650;9.290;2023-02-28T04:21:12;6.18;;;3.95;;
57856;SDS011;43683;48.650;9.290;2023-02-28T04:23:37;4.68;;;3.38;;
57856;SDS011;43683;48.650;9.290;2023-02-28T04:26:03;4.55;;;3.10;;
57856;SDS011;43683;48.650;9.290;2023-02-28T04:28:29;7.35;;;3.88;;
57856;SDS011;43683;48.650;9.290;2023-02-28T04:30:55;6.55;;;3.63;;
57856;SDS011;43683;48.650;9.290;2023-02-28T04:33:25;5.15;;;3.17;;
57856;SDS011;43683;48.650;9.290;2023-02-28T04:36:04;9.05;;;4.13;;
57856;SDS011;43683;48.650;9.290;2023-02-28T04:38:33;6.07;;;4.00;;
57856;SDS011;43683;48.650;9.290;2023-02-28T04:41:03;5.70;;;3.78;;
57856;SDS011;43683;48.650;9.290;2023-02-28T04:43:29;5.25;;;3.15;;
57856;SDS011;43683;48.650;9.290;2023-02-28T04:45:56;7.18;;;4.00;;
57856;SDS011;43683;48.650;9.290;2023-02-28T04:48:27;6.05;;;3.97;;
57856;SDS011;43683;48.650;9.290;2023-02-28T04:50:53;4.72;;;3.67;;
57856;SDS011;43683;48.650;9.290;2023-02-28T04:53:19;5.68;;;3.88;;
57856;SDS011;43683;48.650;9.290;2023-02-28T04:55:44;6.68;;;4.18;;
57856;SDS011;43683;48.650;9.290;2023-02-28T04:58:10;5.60;;;3.92;;
57856;SDS011;43683;48.650;9.290;2023-02-28T05:00:37;4.63;;;3.35;;
57856;SDS011;43683;48.650;9.290;2023-02-28T05:03:02;8.20;;;4.13;;
57856;SDS011;43683;48.650;9.290;2023-02-28T05:05:28;6.55;;;3.83;;
57856;SDS011;43683;48.650;9.290;2023-02-28T05:07:53;6.32;;;4.40;;
57856;SDS011;43683;48.650;9.290;2023-02-28T05:10:20;7.93;;;4.80;;
57856;SDS011;43683;48.650;9.290;2023-02-28T05:12:46;4.93;;;3.53;;
57856;SDS011;43683;48.650;9.290;2023-02-28T05:15:13;5.10;;;3.30;;
57856;SDS011;43683;48.650;9.290;2023-02-28T05:17:39;6.57;;;3.95;;
57856;SDS011;43683;48.650;9.290;2023-02-28T05:20:05;5.30;;;4.07;;
57856;SDS011;43683;48.650;9.290;2023-02-28T05:22:32;5.20;;;3.72;;
57856;SDS011;43683;48.650;9.290;2023-02-28T05:24:57;5.82;;;4.15;;
57856;SDS011;43683;48.650;9.290;2023-02-28T05:27:23;8.30;;;4.47;;
57856;SDS011;43683;48.650;9.290;2023-02-28T05:29:48;5.60;;;4.20;;
57856;SDS011;43683;48.650;9.290;2023-02-28T05:32:14;4.45;;;3.88;;
57856;SDS011;43683;48.650;9.290;2023-02-28T05:34:40;7.05;;;4.15;;
57856;SDS011;43683;48.650;9.290;2023-02-28T05:37:06;7.25;;;4.63;;
57856;SDS011;43683;48.650;9.290;2023-02-28T05:39:36;8.07;;;5.13;;
57856;SDS011;43683;48.650;9.290;2023-02-28T05:42:02;7.85;;;3.92;;
57856;SDS011;43683;48.650;9.290;2023-02-28T05:44:28;7.30;;;4.32;;
57856;SDS011;43683;48.650;9.290;2023-02-28T05:46:53;8.40;;;4.40;;
57856;SDS011;43683;48.650;9.290;2023-02-28T05:49:19;6.80;;;4.22;;
57856;SDS011;43683;48.650;9.290;2023-02-28T05:51:45;10.05;;;4.80;;
57856;SDS011;43683;48.650;9.290;2023-02-28T05:54:10;6.07;;;4.60;;
57856;SDS011;43683;48.650;9.290;2023-02-28T05:56:36;6.10;;;4.20;;
57856;SDS011;43683;48.650;9.290;2023-02-28T06:01:39;5.30;;;3.83;;
57856;SDS011;43683;48.650;9.290;2023-02-28T06:04:07;5.40;;;3.83;;
57856;SDS011;43683;48.650;9.290;2023-02-28T06:06:34;8.57;;;4.05;;
57856;SDS011;43683;48.650;9.290;2023-02-28T06:09:00;4.82;;;3.95;;
57856;SDS011;43683;48.650;9.290;2023-02-28T06:11:26;7.25;;;4.40;;
57856;SDS011;43683;48.650;9.290;2023-02-28T06:13:56;4.47;;;3.92;;
57856;SDS011;43683;48.650;9.290;2023-02-28T06:16:23;9.50;;;4.72;;
57856;SDS011;43683;48.650;9.290;2023-02-28T06:18:49;6.63;;;4.53;;
57856;SDS011;43683;48.650;9.290;2023-02-28T06:21:14;6.13;;;4.43;;
57856;SDS011;43683;48.650;9.290;2023-02-28T06:23:40;9.90;;;5.20;;
57856;SDS011;43683;48.650;9.290;2023-02-28T06:26:05;6.78;;;4.47;;
57856;SDS011;43683;48.650;9.290;2023-02-28T06:28:31;6.70;;;4.65;;
57856;SDS011;43683;48.650;9.290;2023-02-28T06:30:57;7.38;;;4.53;;
57856;SDS011;43683;48.650;9.290;2023-02-28T06:33:22;7.80;;;5.43;;
57856;SDS011;43683;48.650;9.290;2023-02-28T06:35:51;13.25;;;4.45;;
57856;SDS011;43683;48.650;9.290;2023-02-28T06:38:17;7.65;;;4.72;;
57856;SDS011;43683;48.650;9.290;2023-02-28T06:40:43;8.27;;;4.82;;
57856;SDS011;43683;48.650;9.290;2023-02-28T06:43:09;7.38;;;4.97;;
57856;SDS011;43683;48.650;9.290;2023-02-28T06:45:40;7.72;;;4.72;;
57856;SDS011;43683;48.650;9.290;2023-02-28T06:48:09;7.68;;;4.63;;
57856;SDS011;43683;48.650;9.290;2023-02-28T06:50:35;9.65;;;5.18;;
57856;SDS011;43683;48.650;9.290;2023-02-28T06:53:01;10.70;;;5.20;;
57856;SDS011;43683;48.650;9.290;2023-02-28T06:55:26;8.60;;;4.75;;
57856;SDS011;43683;48.650;9.290;2023-02-28T06:57:52;8.45;;;4.15;;
57856;SDS011;43683;48.650;9.290;2023-02-28T07:00:19;9.48;;;5.13;;
57856;SDS011;43683;48.650;9.290;2023-02-28T07:02:45;8.27;;;4.72;;
57856;SDS011;43683;48.650;9.290;2023-02-28T07:05:12;7.85;;;5.05;;
57856;SDS011;43683;48.650;9.290;2023-02-28T07:07:37;8.18;;;4.47;;
57856;SDS011;43683;48.650;9.290;2023-02-28T07:12:31;8.05;;;4.90;;
57856;SDS011;43683;48.650;9.290;2023-02-28T07:14:57;10.65;;;6.00;;
57856;SDS011;43683;48.650;9.290;2023-02-28T07:17:22;9.15;;;4.40;;
57856;SDS011;43683;48.650;9.290;2023-02-28T07:19:48;8.75;;;5.18;;
57856;SDS011;43683;48.650;9.290;2023-02-28T07:22:13;7.93;;;5.30;;
57856;SDS011;43683;48.650;9.290;2023-02-28T07:24:39;8.32;;;5.15;;
57856;SDS011;43683;48.650;9.290;2023-02-28T07:27:04;10.40;;;5.20;;
57856;SDS011;43683;48.650;9.290;2023-02-28T07:29:30;7.90;;;5.25;;
57856;SDS011;43683;48.650;9.290;2023-02-28T07:31:55;8.70;;;4.93;;
57856;SDS011;43683;48.650;9.290;2023-02-28T07:34:21;7.88;;;4.70;;
57856;SDS011;43683;48.650;9.290;2023-02-28T07:36:47;8.90;;;5.68;;
57856;SDS011;43683;48.650;9.290;2023-02-28T07:39:13;7.35;;;4.60;;
57856;SDS011;43683;48.650;9.290;2023-02-28T07:41:38;10.63;;;5.53;;
57856;SDS011;43683;48.650;9.290;2023-02-28T07:44:08;5.35;;;4.13;;
57856;SDS011;43683;48.650;9.290;2023-02-28T07:46:35;8.30;;;5.60;;
57856;SDS011;43683;48.650;9.290;2023-02-28T07:49:01;11.75;;;5.80;;
57856;SDS011;43683;48.650;9.290;2023-02-28T07:51:28;7.07;;;5.38;;
57856;SDS011;43683;48.650;9.290;2023-02-28T07:53:54;8.60;;;5.15;;
57856;SDS011;43683;48.650;9.290;2023-02-28T07:56:19;8.70;;;5.70;;
57856;SDS011;43683;48.650;9.290;2023-02-28T07:58:45;7.13;;;4.90;;
57856;SDS011;43683;48.650;9.290;2023-02-28T08:01:11;9.23;;;5.30;;
57856;SDS011;43683;48.650;9.290;2023-02-28T08:03:36;9.77;;;5.57;;
57856;SDS011;43683;48.650;9.290;2023-02-28T08:06:03;8.95;;;5.35;;
57856;SDS011;43683;48.650;9.290;2023-02-28T08:11:06;10.05;;;5.72;;
57856;SDS011;43683;48.650;9.290;2023-02-28T08:13:31;8.75;;;5.15;;
57856;SDS011;43683;48.650;9.290;2023-02-28T08:15:57;8.77;;;5.50;;
57856;SDS011;43683;48.650;9.290;2023-02-28T08:18:22;9.77;;;5.70;;
57856;SDS011;43683;48.650;9.290;2023-02-28T08:20:48;9.25;;;5.35;;
57856;SDS011;43683;48.650;9.290;2023-02-28T08:23:14;7.93;;;4.55;;
57856;SDS011;43683;48.650;9.290;2023-02-28T08:25:40;8.35;;;5.75;;
57856;SDS011;43683;48.650;9.290;2023-02-28T08:28:05;7.55;;;4.93;;
57856;SDS011;43683;48.650;9.290;2023-02-28T08:30:31;9.93;;;6.47;;
57856;SDS011;43683;48.650;9.290;2023-02-28T08:32:57;9.52;;;6.13;;
57856;SDS011;43683;48.650;9.290;2023-02-28T08:35:22;9.57;;;6.00;;
57856;SDS011;43683;48.650;9.290;2023-02-28T08:37:48;9.38;;;5.30;;
57856;SDS011;43683;48.650;9.290;2023-02-28T08:40:14;10.55;;;5.57;;
57856;SDS011;43683;48.650;9.290;2023-02-28T08:42:46;10.00;;;5.63;;
57856;SDS011;43683;48.650;9.290;2023-02-28T08:45:12;8.50;;;6.28;;
57856;SDS011;43683;48.650;9.290;2023-02-28T08:47:39;7.47;;;4.60;;
57856;SDS011;43683;48.650;9.290;2023-02-28T08:50:04;9.77;;;6.05;;
57856;SDS011;43683;48.650;9.290;2023-02-28T08:52:30;7.72;;;5.20;;
57856;SDS011;43683;48.650;9.290;2023-02-28T08:54:56;9.65;;;5.45;;
57856;SDS011;43683;48.650;9.290;2023-02-28T08:57:21;10.25;;;6.00;;
57856;SDS011;43683;48.650;9.290;2023-02-28T08:59:47;5.90;;;4.05;;
57856;SDS011;43683;48.650;9.290;2023-02-28T09:02:13;7.68;;;5.20;;
57856;SDS011;43683;48.650;9.290;2023-02-28T09:04:39;9.82;;;5.30;;
57856;SDS011;43683;48.650;9.290;2023-02-28T09:07:05;5.88;;;3.72;;
57856;SDS011;43683;48.650;9.290;2023-02-28T09:09:31;10.05;;;6.40;;
57856;SDS011;43683;48.650;9.290;2023-02-28T09:11:57;10.27;;;6.10;;
57856;SDS011;43683;48.650;9.290;2023-02-28T09:14:23;8.85;;;5.50;;
57856;SDS011;43683;48.650;9.290;2023-02-28T09:16:48;10.27;;;5.85;;
57856;SDS011;43683;48.650;9.290;2023-02-28T09:19:14;8.63;;;5.30;;
57856;SDS011;43683;48.650;9.290;2023-02-28T09:21:40;8.98;;;5.72;;
57856;SDS011;43683;48.650;9.290;2023-02-28T09:24:05;8.60;;;5.18;;
57856;SDS011;43683;48.650;9.290;2023-02-28T09:26:31;9.63;;;5.93;;
57856;SDS011;43683;48.650;9.290;2023-02-28T09:28:57;10.30;;;6.57;;
57856;SDS011;43683;48.650;9.290;2023-02-28T09:31:24;18.07;;;6.57;;
57856;SDS011;43683;48.650;9.290;2023-02-28T09:33:52;10.32;;;6.40;;
57856;SDS011;43683;48.650;9.290;2023-02-28T09:38:45;8.57;;;5.53;;
57856;SDS011;43683;48.650;9.290;2023-02-28T09:41:21;10.63;;;5.63;;
57856;SDS011;43683;48.650;9.290;2023-02-28T09:46:23;8.40;;;5.40;;
57856;SDS011;43683;48.650;9.290;2023-02-28T09:48:56;8.40;;;5.38;;
57856;SDS011;43683;48.650;9.290;2023-02-28T09:54:21;8.82;;;5.20;;
57856;SDS011;43683;48.650;9.290;2023-02-28T10:03:01;8.60;;;5.28;;
57856;SDS011;43683;48.650;9.290;2023-02-28T10:08:13;10.57;;;5.65;;
57856;SDS011;43683;48.650;9.290;2023-02-28T10:10:47;8.82;;;5.28;;
57856;SDS011;43683;48.650;9.290;2023-02-28T10:15:50;6.30;;;4.75;;
57856;SDS011;43683;48.650;9.290;2023-02-28T10:18:21;10.80;;;5.78;;
57856;SDS011;43683;48.650;9.290;2023-02-28T10:20:52;8.75;;;5.72;;
57856;SDS011;43683;48.650;9.290;2023-02-28T10:23:21;11.00;;;4.88;;
57856;SDS011;43683;48.650;9.290;2023-02-28T10:26:00;7.70;;;4.70;;
57856;SDS011;43683;48.650;9.290;2023-02-28T10:28:33;11.20;;;6.18;;
57856;SDS011;43683;48.650;9.290;2023-02-28T10:30:59;9.02;;;5.00;;
57856;SDS011;43683;48.650;9.290;2023-02-28T10:35:55;8.32;;;4.95;;
57856;SDS011;43683;48.650;9.290;2023-02-28T10:38:27;10.60;;;6.13;;
57856;SDS011;43683;48.650;9.290;2023-02-28T10:41:05;7.93;;;4.63;;
57856;SDS011;43683;48.650;9.290;2023-02-28T10:43:36;9.77;;;5.88;;
57856;SDS011;43683;48.650;9.290;2023-02-28T10:48:38;16.50;;;8.05;;
57856;SDS011;43683;48.650;9.290;2023-02-28T10:51:08;14.65;;;6.93;;
57856;SDS011;43683;48.650;9.290;2023-02-28T10:53:48;13.10;;;6.97;;
57856;SDS011;43683;48.650;9.290;2023-02-28T10:56:18;10.27;;;6.32;;
57856;SDS011;43683;48.650;9.290;2023-02-28T10:58:47;7.65;;;4.75;;
57856;SDS011;43683;48.650;9.290;2023-02-28T11:01:15;8.30;;;5.05;;
57856;SDS011;43683;48.650;9.290;2023-02-28T11:03:41;10.73;;;5.72;;
57856;SDS011;43683;48.650;9.290;2023-02-28T11:06:08;10.23;;;6.25;;
57856;SDS011;43683;48.650;9.290;2023-02-28T11:08:51;10.05;;;6.13;;
57856;SDS011;43683;48.650;9.290;2023-02-28T11:11:19;9.57;;;7.05;;
57856;SDS011;43683;48.650;9.290;2023-02-28T11:16:14;10.07;;;6.13;;
57856;SDS011;43683;48.650;9.290;2023-02-28T11:18:42;11.02;;;6.22;;
57856;SDS011;43683;48.650;9.290;2023-02-28T11:23:45;8.93;;;5.75;;
57856;SDS011;43683;48.650;9.290;2023-02-28T11:26:12;8.50;;;5.60;;
57856;SDS011;43683;48.650;9.290;2023-02-28T11:28:39;9.27;;;6.05;;
57856;SDS011;43683;48.650;9.290;2023-02-28T11:33:45;9.23;;;5.50;;
57856;SDS011;43683;48.650;9.290;2023-02-28T11:38:43;10.40;;;5.93;;
57856;SDS011;43683;48.650;9.290;2023-02-28T11:46:47;8.43;;;4.82;;
57856;SDS011;43683;48.650;9.290;2023-02-28T11:49:37;8.63;;;5.55;;
57856;SDS011;43683;48.650;9.290;2023-02-28T11:52:29;8.82;;;5.35;;
57856;SDS011;43683;48.650;9.290;2023-02-28T11:55:14;10.90;;;6.78;;
57856;SDS011;43683;48.650;9.290;2023-02-28T11:57:56;8.43;;;5.38;;
57856;SDS011;43683;48.650;9.290;2023-02-28T12:06:18;10.23;;;6.60;;
57856;SDS011;43683;48.650;9.290;2023-02-28T12:11:54;9.93;;;6.50;;
57856;SDS011;43683;48.650;9.290;2023-02-28T12:14:46;10.40;;;6.30;;
57856;SDS011;43683;48.650;9.290;2023-02-28T12:17:37;11.98;;;6.35;;
57856;SDS011;43683;48.650;9.290;2023-02-28T12:28:34;10.80;;;5.28;;
57856;SDS011;43683;48.650;9.290;2023-02-28T12:31:06;9.40;;;6.38;;
57856;SDS011;43683;48.650;9.290;2023-02-28T12:33:38;8.82;;;5.40;;
57856;SDS011;43683;48.650;9.290;2023-02-28T12:36:13;10.95;;;6.55;;
57856;SDS011;43683;48.650;9.290;2023-02-28T12:38:45;9.15;;;5.78;;
57856;SDS011;43683;48.650;9.290;2023-02-28T12:41:19;11.10;;;5.78;;
57856;SDS011;43683;48.650;9.290;2023-02-28T12:43:48;9.10;;;5.50;;
57856;SDS011;43683;48.650;9.290;2023-02-28T12:46:32;11.38;;;6.07;;
57856;SDS011;43683;48.650;9.290;2023-02-28T12:49:04;11.35;;;8.60;;
57856;SDS011;43683;48.650;9.290;2023-02-28T12:51:35;11.35;;;6.50;;
57856;SDS011;43683;48.650;9.290;2023-02-28T12:59:18;8.82;;;5.55;;
57856;SDS011;43683;48.650;9.290;2023-02-28T13:05:14;8.35;;;4.78;;
57856;SDS011;43683;48.650;9.290;2023-02-28T13:10:53;12.13;;;5.82;;
57856;SDS011;43683;48.650;9.290;2023-02-28T13:13:20;9.70;;;6.05;;
57856;SDS011;43683;48.650;9.290;2023-02-28T13:18:27;9.50;;;5.30;;
57856;SDS011;43683;48.650;9.290;2023-02-28T13:20:55;9.13;;;5.00;;
57856;SDS011;43683;48.650;9.290;2023-02-28T13:26:04;9.82;;;5.63;;
57856;SDS011;43683;48.650;9.290;2023-02-28T13:31:14;8.50;;;5.10;;
57856;SDS011;43683;48.650;9.290;2023-02-28T13:36:27;9.60;;;5.32;;
57856;SDS011;43683;48.650;9.290;2023-02-28T13:38:57;7.88;;;5.63;;
57856;SDS011;43683;48.650;9.290;2023-02-28T13:44:03;8.65;;;5.18;;
57856;SDS011;43683;48.650;9.290;2023-02-28T13:54:40;9.13;;;5.20;;
57856;SDS011;43683;48.650;9.290;2023-02-28T14:00:28;9.68;;;5.65;;
57856;SDS011;43683;48.650;9.290;2023-02-28T14:03:07;9.93;;;5.50;;
57856;SDS011;43683;48.650;9.290;2023-02-28T14:05:35;10.13;;;5.88;;
57856;SDS011;43683;48.650;9.290;2023-02-28T14:08:07;9.80;;;5.40;;
57856;SDS011;43683;48.650;9.290;2023-02-28T14:10:46;8.20;;;4.95;;
57856;SDS011;43683;48.650;9.290;2023-02-28T14:16:09;7.85;;;5.32;;
57856;SDS011;43683;48.650;9.290;2023-02-28T14:18:37;8.75;;;5.00;;
57856;SDS011;43683;48.650;9.290;2023-02-28T14:21:11;8.30;;;5.72;;
57856;SDS011;43683;48.650;9.290;2023-02-28T14:23:52;9.73;;;5.07;;
57856;SDS011;43683;48.650;9.290;2023-02-28T14:26:36;9.30;;;5.43;;
57856;SDS011;43683;48.650;9.290;2023-02-28T14:29:27;8.52;;;5.32;;
57856;SDS011;43683;48.650;9.290;2023-02-28T14:32:22;7.90;;;5.00;;
57856;SDS011;43683;48.650;9.290;2023-02-28T14:37:32;10.82;;;6.72;;
57856;SDS011;43683;48.650;9.290;2023-02-28T14:40:01;8.80;;;5.10;;
57856;SDS011;43683;48.650;9.290;2023-02-28T14:42:35;8.27;;;5.43;;
57856;SDS011;43683;48.650;9.290;2023-02-28T14:45:21;9.88;;;5.28;;
57856;SDS011;43683;48.650;9.290;2023-02-28T14:47:48;8.45;;;5.50;;
57856;SDS011;43683;48.650;9.290;2023-02-28T14:50:20;8.77;;;5.47;;
57856;SDS011;43683;48.650;9.290;2023-02-28T14:52:48;6.25;;;4.47;;
57856;SDS011;43683;48.650;9.290;2023-02-28T14:55:17;10.27;;;5.75;;
57856;SDS011;43683;48.650;9.290;2023-02-28T15:02:48;9.65;;;5.72;;
57856;SDS011;43683;48.650;9.290;2023-02-28T15:07:43;7.47;;;4.95;;
57856;SDS011;43683;48.650;9.290;2023-02-28T15:12:38;8.45;;;4.80;;
57856;SDS011;43683;48.650;9.290;2023-02-28T15:15:05;8.15;;;5.28;;
57856;SDS011;43683;48.650;9.290;2023-02-28T15:17:32;11.30;;;6.40;;
57856;SDS011;43683;48.650;9.290;2023-02-28T15:19:59;7.00;;;4.55;;
57856;SDS011;43683;48.650;9.290;2023-02-28T15:22:28;9.50;;;5.70;;
57856;SDS011;43683;48.650;9.290;2023-02-28T15:25:00;10.05;;;5.50;;
57856;SDS011;43683;48.650;9.290;2023-02-28T15:27:29;9.75;;;5.43;;
57856;SDS011;43683;48.650;9.290;2023-02-28T15:29:59;10.88;;;5.38;;
57856;SDS011;43683;48.650;9.290;2023-02-28T15:32:30;8.73;;;4.90;;
57856;SDS011;43683;48.650;9.290;2023-02-28T15:34:58;8.43;;;4.80;;
57856;SDS011;43683;48.650;9.290;2023-02-28T15:37:57;11.82;;;5.63;;
57856;SDS011;43683;48.650;9.290;2023-02-28T15:40:50;9.23;;;6.05;;
57856;SDS011;43683;48.650;9.290;2023-02-28T15:48:27;9.17;;;6.30;;
57856;SDS011;43683;48.650;9.290;2023-02-28T15:51:09;8.15;;;4.90;;
57856;SDS011;43683;48.650;9.290;2023-02-28T15:54:03;11.90;;;5.80;;
57856;SDS011;43683;48.650;9.290;2023-02-28T15:56:33;9.00;;;5.43;;
57856;SDS011;43683;48.650;9.290;2023-02-28T15:59:07;10.25;;;5.47;;
57856;SDS011;43683;48.650;9.290;2023-02-28T16:01:42;8.35;;;5.95;;
57856;SDS011;43683;48.650;9.290;2023-02-28T16:04:18;9.20;;;5.68;;
57856;SDS011;43683;48.650;9.290;2023-02-28T16:09:29;8.75;;;5.80;;
57856;SDS011;43683;48.650;9.290;2023-02-28T16:11:56;9.48;;;5.65;;
57856;SDS011;43683;48.650;9.290;2023-02-28T16:14:28;14.73;;;7.47;;
57856;SDS011;43683;48.650;9.290;2023-02-28T16:17:05;13.10;;;8.15;;
57856;SDS011;43683;48.650;9.290;2023-02-28T16:19:33;13.30;;;6.43;;
57856;SDS011;43683;48.650;9.290;2023-02-28T16:21:59;10.35;;;5.72;;
57856;SDS011;43683;48.650;9.290;2023-02-28T16:24:25;8.50;;;5.15;;
57856;SDS011;43683;48.650;9.290;2023-02-28T16:26:52;9.57;;;5.45;;
57856;SDS011;43683;48.650;9.290;2023-02-28T16:29:23;10.38;;;6.55;;
57856;SDS011;43683;48.650;9.290;2023-02-28T16:31:52;10.82;;;5.97;;
57856;SDS011;43683;48.650;9.290;2023-02-28T16:34:18;9.45;;;6.60;;
57856;SDS011;43683;48.650;9.290;2023-02-28T16:36:45;11.10;;;6.97;;
57856;SDS011;43683;48.650;9.290;2023-02-28T16:39:13;12.85;;;6.40;;
57856;SDS011;43683;48.650;9.290;2023-02-28T16:41:38;13.50;;;7.55;;
57856;SDS011;43683;48.650;9.290;2023-02-28T16:44:09;12.77;;;6.05;;
57856;SDS011;43683;48.650;9.290;2023-02-28T16:46:38;13.10;;;7.97;;
57856;SDS011;43683;48.650;9.290;2023-02-28T16:49:03;10.30;;;6.28;;
57856;SDS011;43683;48.650;9.290;2023-02-28T16:51:29;11.30;;;7.13;;
57856;SDS011;43683;48.650;9.290;2023-02-28T16:53:54;11.23;;;7.65;;
57856;SDS011;43683;48.650;9.290;2023-02-28T16:56:21;12.85;;;8.10;;
57856;SDS011;43683;48.650;9.290;2023-02-28T16:58:48;14.38;;;9.20;;
57856;SDS011;43683;48.650;9.290;2023-02-28T17:01:15;11.60;;;6.70;;
57856;SDS011;43683;48.650;9.290;2023-02-28T17:03:41;11.05;;;6.43;;
57856;SDS011;43683;48.650;9.290;2023-02-28T17:06:26;10.35;;;6.55;;
57856;SDS011;43683;48.650;9.290;2023-02-28T17:08:53;12.23;;;7.63;;
57856;SDS011;43683;48.650;9.290;2023-02-28T17:11:20;12.05;;;7.40;;
57856;SDS011;43683;48.650;9.290;2023-02-28T17:13:46;11.55;;;7.43;;
57856;SDS011;43683;48.650;9.290;2023-02-28T17:16:17;11.05;;;7.75;;
57856;SDS011;43683;48.650;9.290;2023-02-28T17:18:53;10.65;;;6.97;;
57856;SDS011;43683;48.650;9.290;2023-02-28T17:21:21;11.55;;;7.88;;
57856;SDS011;43683;48.650;9.290;2023-02-28T17:23:47;14.30;;;7.72;;
57856;SDS011;43683;48.650;9.290;2023-02-28T17:26:13;13.70;;;8.30;;
57856;SDS011;43683;48.650;9.290;2023-02-28T17:28:42;13.10;;;7.60;;
57856;SDS011;43683;48.650;9.290;2023-02-28T17:31:08;11.55;;;7.47;;
57856;SDS011;43683;48.650;9.290;2023-02-28T17:33:34;12.98;;;8.45;;
57856;SDS011;43683;48.650;9.290;2023-02-28T17:35:59;10.65;;;7.00;;
57856;SDS011;43683;48.650;9.290;2023-02-28T17:38:24;9.98;;;6.65;;